Time;durP1;ratioP1;P1;durP2;ratioP2;P2;SDS_P1;SDS_P2;PMS_P1;PMS_P2;Temp;Humidity;BMP_temperature;BMP_pressure;BME280_temperature;BME280_humidity;BME280_pressure;Samples;Min_cycle;Max_cycle;Signal;HPM_P1;HPM_P2
2023/01/09 00:01:06;;;;;;;1.80;1.70;;;7.40;99.90;;;;;;465966;252;28056;-80
2023/01/09 00:03:08;;;;;;;2.23;2.13;;;7.40;99.90;;;;;;465979;252;27543;-79
2023/01/09 00:05:09;;;;;;;2.43;2.23;;;7.40;99.90;;;;;;465981;252;27800;-79
2023/01/09 00:07:10;;;;;;;2.00;1.90;;;7.40;99.90;;;;;;465997;252;27999;-79
2023/01/09 00:09:11;;;;;;;2.63;2.43;;;7.40;99.90;;;;;;465963;252;27976;-79
2023/01/09 00:11:13;;;;;;;1.97;1.87;;;7.40;99.90;;;;;;465973;252;27950;-80
2023/01/09 00:13:14;;;;;;;2.30;2.20;;;7.40;99.90;;;;;;465999;252;28267;-79
2023/01/09 00:15:15;;;;;;;2.50;2.30;;;7.40;99.90;;;;;;466052;252;27553;-79
2023/01/09 00:17:16;;;;;;;2.20;2.10;;;7.50;99.90;;;;;;465981;252;27948;-79
2023/01/09 00:19:18;;;;;;;2.40;2.20;;;7.50;99.90;;;;;;466008;252;27792;-80
2023/01/09 00:21:19;;;;;;;2.37;2.17;;;7.50;99.90;;;;;;465963;252;28142;-79
2023/01/09 00:23:20;;;;;;;2.20;2.10;;;7.50;99.90;;;;;;465836;255;28469;-79
2023/01/09 00:25:21;;;;;;;2.10;1.90;;;7.40;99.90;;;;;;465997;252;28326;-79
2023/01/09 00:27:23;;;;;;;5.53;2.10;;;7.50;99.90;;;;;;465922;252;28193;-80
2023/01/09 00:29:24;;;;;;;2.00;1.90;;;7.50;99.90;;;;;;465917;252;28348;-79
2023/01/09 00:31:25;;;;;;;2.30;2.10;;;7.50;99.90;;;;;;465927;252;28053;-80
2023/01/09 00:33:26;;;;;;;3.07;1.80;;;7.50;99.90;;;;;;465985;252;28151;-80
2023/01/09 00:35:28;;;;;;;1.70;1.60;;;7.50;99.90;;;;;;465974;252;27538;-80
2023/01/09 00:37:29;;;;;;;2.13;1.97;;;7.50;99.90;;;;;;465972;251;27938;-79
2023/01/09 00:39:30;;;;;;;2.17;1.60;;;7.50;99.90;;;;;;465961;252;28581;-79
2023/01/09 00:41:31;;;;;;;1.80;1.70;;;7.50;99.90;;;;;;465934;255;27907;-80
2023/01/09 00:43:33;;;;;;;2.00;1.80;;;7.50;99.90;;;;;;466037;252;27989;-80
2023/01/09 00:45:34;;;;;;;1.80;1.70;;;7.50;99.90;;;;;;466037;252;28026;-79
2023/01/09 00:47:35;;;;;;;2.50;1.90;;;7.50;99.90;;;;;;466062;252;28135;-80
2023/01/09 00:49:36;;;;;;;2.07;1.90;;;7.50;99.90;;;;;;466025;252;27957;-80
2023/01/09 00:51:38;;;;;;;2.00;1.70;;;7.50;99.90;;;;;;466032;252;27885;-80
2023/01/09 00:53:39;;;;;;;1.60;1.50;;;7.50;99.90;;;;;;465992;252;27951;-80
2023/01/09 00:55:40;;;;;;;1.73;1.50;;;7.50;99.90;;;;;;465990;252;27859;-79
2023/01/09 00:57:41;;;;;;;2.63;1.50;;;7.50;99.90;;;;;;465949;252;29098;-79
2023/01/09 00:59:43;;;;;;;3.67;1.70;;;7.50;99.90;;;;;;465997;252;28214;-79
2023/01/09 01:01:44;;;;;;;1.80;1.70;;;7.50;99.90;;;;;;466001;252;28260;-79
2023/01/09 01:03:45;;;;;;;1.60;1.50;;;7.50;99.90;;;;;;466059;252;28297;-80
2023/01/09 01:08:06;;;;;;;1.73;1.60;;;7.50;99.90;;;;;;465989;255;28914;-78
2023/01/09 01:10:07;;;;;;;1.80;1.70;;;7.40;99.90;;;;;;466007;252;28441;-79
2023/01/09 01:12:09;;;;;;;1.63;1.53;;;7.50;99.90;;;;;;466003;252;28526;-80
2023/01/09 01:14:11;;;;;;;1.60;1.50;;;7.50;99.90;;;;;;465975;252;27909;-79
2023/01/09 01:16:12;;;;;;;1.90;1.70;;;7.50;99.90;;;;;;465986;255;27946;-79
2023/01/09 01:18:13;;;;;;;1.60;1.50;;;7.50;99.90;;;;;;466057;252;28024;-81
2023/01/09 01:20:14;;;;;;;1.60;1.50;;;7.50;99.90;;;;;;466051;252;27947;-80
2023/01/09 01:22:16;;;;;;;1.73;1.40;;;7.50;99.90;;;;;;466053;252;28289;-80
2023/01/09 01:24:18;;;;;;;3.67;3.47;;;7.50;99.90;;;;;;466011;252;28339;-79
2023/01/09 01:26:18;;;;;;;2.37;2.20;;;7.40;99.90;;;;;;465914;252;28675;-79
2023/01/09 01:28:19;;;;;;;2.05;1.30;;;7.50;99.90;;;;;;466027;252;28214;-80
2023/01/09 01:30:21;;;;;;;1.42;1.35;;;7.50;99.90;;;;;;466005;252;27415;-80
2023/01/09 01:32:22;;;;;;;2.67;2.47;;;7.50;99.90;;;;;;465975;252;27486;-80
2023/01/09 01:34:23;;;;;;;3.03;2.78;;;7.50;99.90;;;;;;465977;252;27522;-79
2023/01/09 01:36:24;;;;;;;2.20;2.00;;;7.40;99.90;;;;;;466010;252;27451;-80
2023/01/09 01:38:26;;;;;;;5.50;5.00;;;7.50;99.90;;;;;;466023;252;27453;-80
2023/01/09 01:40:27;;;;;;;15.33;14.03;;;7.50;99.90;;;;;;466017;252;27985;-79
2023/01/09 01:42:28;;;;;;;15.67;14.37;;;7.50;99.90;;;;;;466018;252;27950;-80
2023/01/09 01:44:29;;;;;;;7.73;7.03;;;7.40;99.90;;;;;;466022;252;28369;-79
2023/01/09 01:46:31;;;;;;;3.00;2.80;;;7.40;99.90;;;;;;465824;252;28467;-79
2023/01/09 01:48:32;;;;;;;2.87;2.50;;;7.40;99.90;;;;;;466018;255;28878;-80
2023/01/09 01:50:33;;;;;;;2.40;1.73;;;7.40;99.90;;;;;;466015;252;28899;-80
2023/01/09 01:52:34;;;;;;;1.93;1.70;;;7.30;99.90;;;;;;465971;252;27854;-80
2023/01/09 01:54:36;;;;;;;1.60;1.50;;;7.30;99.90;;;;;;465950;252;27782;-79
2023/01/09 01:56:37;;;;;;;3.37;1.70;;;7.30;99.90;;;;;;466005;252;27995;-80
2023/01/09 01:58:38;;;;;;;1.25;1.25;;;7.30;99.90;;;;;;466007;252;27989;-80
2023/01/09 02:00:39;;;;;;;2.53;1.50;;;7.30;99.90;;;;;;466008;252;27414;-80
2023/01/09 02:02:42;;;;;;;2.60;1.43;;;7.30;99.90;;;;;;465977;252;28873;-79
2023/01/09 02:04:42;;;;;;;1.30;1.30;;;7.20;99.90;;;;;;465965;252;28326;-79
2023/01/09 02:06:43;;;;;;;2.53;1.23;;;7.20;99.90;;;;;;465959;252;27451;-79
2023/01/09 02:08:44;;;;;;;2.13;1.20;;;7.20;99.90;;;;;;465998;252;27970;-80
2023/01/09 02:10:46;;;;;;;1.33;1.30;;;7.10;99.90;;;;;;465995;252;28064;-80
2023/01/09 02:12:47;;;;;;;2.70;1.50;;;7.10;99.90;;;;;;465979;252;29070;-80
2023/01/09 02:14:48;;;;;;;1.60;1.50;;;7.10;99.90;;;;;;465966;252;28492;-79
2023/01/09 02:16:50;;;;;;;1.53;1.50;;;7.10;99.90;;;;;;465997;252;28566;-80
2023/01/09 02:18:52;;;;;;;1.33;1.23;;;7.10;99.90;;;;;;465959;252;27923;-79
2023/01/09 02:20:52;;;;;;;1.12;1.12;;;7.10;99.90;;;;;;465911;255;29310;-79
2023/01/09 02:22:53;;;;;;;1.30;1.20;;;7.20;99.90;;;;;;465987;252;27961;-80
2023/01/09 02:24:55;;;;;;;1.30;1.20;;;7.10;99.90;;;;;;465946;252;29218;-79
2023/01/09 02:26:56;;;;;;;1.20;1.20;;;7.10;99.90;;;;;;465964;252;28801;-79
2023/01/09 02:28:57;;;;;;;1.63;1.23;;;7.10;99.90;;;;;;465978;252;28904;-79
2023/01/09 02:30:58;;;;;;;1.40;1.30;;;7.10;99.90;;;;;;465989;252;27917;-79
2023/01/09 02:33:00;;;;;;;1.50;1.40;;;7.10;99.90;;;;;;466000;252;28528;-79
2023/01/09 02:35:01;;;;;;;1.03;1.03;;;7.10;99.90;;;;;;465894;255;27415;-79
2023/01/09 02:37:02;;;;;;;1.90;1.20;;;7.10;99.90;;;;;;465936;252;28129;-80
2023/01/09 02:39:03;;;;;;;1.30;1.20;;;7.10;99.90;;;;;;465955;252;27940;-79
2023/01/09 02:41:05;;;;;;;1.03;1.00;;;7.00;99.90;;;;;;466026;252;27912;-80
2023/01/09 02:43:06;;;;;;;4.43;1.27;;;7.00;99.90;;;;;;466005;252;28947;-80
2023/01/09 02:45:07;;;;;;;1.80;1.10;;;7.00;99.90;;;;;;465984;252;28492;-80
2023/01/09 02:47:08;;;;;;;1.40;1.30;;;6.90;99.90;;;;;;466002;252;29119;-80
2023/01/09 02:49:10;;;;;;;0.97;0.97;;;6.90;99.90;;;;;;465987;252;27995;-79
2023/01/09 02:51:11;;;;;;;0.90;0.90;;;6.90;99.90;;;;;;466019;252;29395;-79
2023/01/09 02:53:12;;;;;;;1.47;1.10;;;6.90;99.90;;;;;;465972;252;27944;-79
2023/01/09 02:55:13;;;;;;;2.20;1.30;;;6.90;99.90;;;;;;465918;252;27890;-78
2023/01/09 02:57:15;;;;;;;1.90;1.40;;;6.80;99.90;;;;;;465977;252;28106;-79
2023/01/09 02:59:16;;;;;;;2.10;1.40;;;6.80;99.90;;;;;;465978;252;27499;-79
2023/01/09 03:01:17;;;;;;;3.22;1.20;;;6.80;99.90;;;;;;465953;252;27590;-80
2023/01/09 03:03:18;;;;;;;1.35;1.30;;;6.80;99.90;;;;;;465948;252;27486;-80
2023/01/09 03:05:20;;;;;;;1.98;1.00;;;6.80;99.90;;;;;;465887;252;27511;-79
2023/01/09 03:07:21;;;;;;;1.83;1.30;;;6.80;99.90;;;;;;465872;252;28041;-79
2023/01/09 03:09:22;;;;;;;1.63;1.13;;;6.80;99.90;;;;;;465822;252;28369;-79
2023/01/09 03:11:23;;;;;;;1.20;1.10;;;6.70;99.90;;;;;;465850;252;28409;-77
2023/01/09 03:13:25;;;;;;;1.77;1.67;;;6.70;99.90;;;;;;465928;252;28611;-78
2023/01/09 03:15:26;;;;;;;1.30;1.20;;;6.70;99.90;;;;;;465948;252;28578;-77
2023/01/09 03:17:27;;;;;;;1.20;1.20;;;6.70;99.90;;;;;;465983;252;27458;-77
2023/01/09 03:19:28;;;;;;;1.10;1.00;;;6.70;99.90;;;;;;465994;252;27495;-76
2023/01/09 03:21:30;;;;;;;2.20;2.10;;;6.70;99.90;;;;;;465956;252;28816;-76
2023/01/09 03:23:31;;;;;;;4.35;3.40;;;6.70;99.90;;;;;;465989;252;29279;-77
2023/01/09 03:25:32;;;;;;;1.60;1.43;;;6.70;99.90;;;;;;466008;252;27470;-78
2023/01/09 03:27:33;;;;;;;2.57;1.23;;;6.70;99.90;;;;;;465990;252;29401;-77
2023/01/09 03:29:35;;;;;;;1.40;1.30;;;6.70;99.90;;;;;;465952;252;29234;-78
2023/01/09 03:31:36;;;;;;;1.17;1.17;;;6.70;99.90;;;;;;465971;252;29294;-78
2023/01/09 03:33:37;;;;;;;1.50;1.40;;;6.70;99.90;;;;;;466004;252;27479;-77
2023/01/09 03:35:38;;;;;;;1.90;1.80;;;6.60;99.90;;;;;;465967;252;27566;-77
2023/01/09 03:37:40;;;;;;;2.15;1.42;;;6.60;99.90;;;;;;465964;254;27472;-79
2023/01/09 03:39:42;;;;;;;1.30;1.20;;;6.60;99.90;;;;;;465965;252;27423;-77
2023/01/09 03:41:42;;;;;;;1.23;1.20;;;6.60;99.90;;;;;;465969;252;28014;-77
2023/01/09 03:43:43;;;;;;;1.40;1.30;;;6.60;99.90;;;;;;465981;252;27914;-78
2023/01/09 03:45:45;;;;;;;1.27;1.00;;;6.60;99.90;;;;;;465970;252;28056;-77
2023/01/09 03:47:46;;;;;;;1.47;1.37;;;6.60;99.90;;;;;;465981;252;28417;-78
2023/01/09 03:49:47;;;;;;;1.30;1.20;;;6.60;99.90;;;;;;465997;252;28309;-78
2023/01/09 03:51:48;;;;;;;1.10;1.10;;;6.50;99.90;;;;;;465978;252;28378;-78
2023/01/09 03:53:50;;;;;;;1.67;1.15;;;6.40;99.90;;;;;;466025;252;27544;-77
2023/01/09 03:55:51;;;;;;;1.67;1.20;;;6.40;99.90;;;;;;466024;252;27511;-79
2023/01/09 03:57:52;;;;;;;2.83;1.10;;;6.40;99.90;;;;;;465937;252;27853;-78
2023/01/09 03:59:53;;;;;;;1.30;1.20;;;6.40;99.90;;;;;;466000;252;27426;-79
2023/01/09 04:01:55;;;;;;;1.77;1.33;;;6.30;99.90;;;;;;465953;255;27451;-79
2023/01/09 04:03:56;;;;;;;1.10;1.10;;;6.30;99.90;;;;;;465964;252;27504;-77
2023/01/09 04:05:57;;;;;;;1.60;1.50;;;6.30;99.90;;;;;;466008;252;27955;-77
2023/01/09 04:07:59;;;;;;;1.70;1.33;;;6.30;99.90;;;;;;465996;252;27672;-78
2023/01/09 04:10:00;;;;;;;1.30;1.20;;;6.30;99.90;;;;;;465964;252;27496;-77
2023/01/09 04:12:01;;;;;;;2.75;1.27;;;6.20;99.90;;;;;;465951;252;27478;-78
2023/01/09 04:14:02;;;;;;;2.90;1.10;;;6.20;99.90;;;;;;465972;252;27419;-80
2023/01/09 04:16:04;;;;;;;2.60;1.15;;;6.20;99.90;;;;;;466006;252;27419;-79
2023/01/09 04:18:05;;;;;;;2.15;1.05;;;6.20;99.90;;;;;;465980;252;27962;-78
2023/01/09 04:20:06;;;;;;;1.30;1.20;;;6.10;99.90;;;;;;465973;252;27909;-76
2023/01/09 04:22:07;;;;;;;3.50;1.60;;;6.10;99.90;;;;;;465975;252;27455;-79
2023/01/09 04:24:09;;;;;;;1.30;1.20;;;6.20;99.90;;;;;;465975;252;27458;-78
2023/01/09 04:26:10;;;;;;;1.77;1.33;;;6.20;99.90;;;;;;465948;252;27430;-79
2023/01/09 04:28:11;;;;;;;1.40;1.30;;;6.20;99.90;;;;;;465978;252;27462;-76
2023/01/09 04:30:12;;;;;;;1.20;1.10;;;6.20;99.90;;;;;;465998;252;27480;-80
2023/01/09 04:32:14;;;;;;;4.50;1.30;;;6.20;99.90;;;;;;465953;252;28026;-78
2023/01/09 04:34:15;;;;;;;3.08;1.58;;;6.20;99.90;;;;;;465960;252;27575;-79
2023/01/09 04:36:16;;;;;;;5.55;1.40;;;6.10;99.90;;;;;;465955;252;27439;-78
2023/01/09 04:38:18;;;;;;;2.28;1.30;;;6.10;99.90;;;;;;465969;252;27455;-79
2023/01/09 04:40:19;;;;;;;2.28;1.40;;;6.10;99.90;;;;;;465979;252;27463;-78
2023/01/09 04:42:20;;;;;;;1.33;1.20;;;6.10;99.90;;;;;;465971;252;27485;-79
2023/01/09 04:44:21;;;;;;;1.70;1.08;;;6.00;99.90;;;;;;465945;252;27804;-77
2023/01/09 04:46:22;;;;;;;2.35;1.20;;;5.90;99.90;;;;;;465962;252;27919;-79
2023/01/09 04:48:24;;;;;;;1.62;1.30;;;5.70;99.90;;;;;;466007;252;27439;-79
2023/01/09 04:50:25;;;;;;;1.50;1.40;;;5.70;99.90;;;;;;465978;252;27431;-79
2023/01/09 04:52:26;;;;;;;3.25;1.70;;;5.60;99.90;;;;;;465954;251;27527;-79
2023/01/09 04:54:27;;;;;;;8.48;3.45;;;5.60;99.90;;;;;;465946;252;27503;-79
2023/01/09 04:56:29;;;;;;;1.75;1.65;;;5.60;99.90;;;;;;465942;252;27546;-79
2023/01/09 04:58:30;;;;;;;4.07;1.58;;;5.50;99.90;;;;;;465946;252;27600;-77
2023/01/09 05:00:31;;;;;;;6.37;1.40;;;5.40;99.90;;;;;;465963;252;27937;-79
2023/01/09 05:02:32;;;;;;;3.30;1.60;;;5.40;99.90;;;;;;465923;252;27953;-78
2023/01/09 05:04:34;;;;;;;5.37;1.62;;;5.30;99.90;;;;;;465899;252;27494;-79
2023/01/09 05:06:35;;;;;;;2.17;1.50;;;5.30;99.90;;;;;;465860;252;27620;-77
2023/01/09 05:08:36;;;;;;;3.37;1.83;;;5.30;99.90;;;;;;465993;252;27415;-79
2023/01/09 05:10:38;;;;;;;2.37;1.60;;;5.20;99.90;;;;;;465996;252;27530;-78
2023/01/09 05:12:39;;;;;;;2.78;1.30;;;5.20;99.90;;;;;;465985;255;27537;-79
2023/01/09 05:14:40;;;;;;;1.55;1.10;;;5.20;99.90;;;;;;465976;252;27411;-77
2023/01/09 05:16:41;;;;;;;5.07;2.62;;;5.30;99.90;;;;;;465962;252;27917;-78
2023/01/09 05:18:43;;;;;;;1.60;1.50;;;5.30;99.90;;;;;;465972;252;27958;-78
2023/01/09 05:20:44;;;;;;;5.20;1.40;;;5.40;99.90;;;;;;466011;252;27582;-80
2023/01/09 05:22:45;;;;;;;4.85;1.20;;;5.40;99.90;;;;;;465972;252;27530;-79
2023/01/09 05:24:46;;;;;;;1.52;1.30;;;5.40;99.90;;;;;;465960;252;27411;-79
2023/01/09 05:26:48;;;;;;;4.45;1.70;;;5.50;99.90;;;;;;465975;252;27542;-78
2023/01/09 05:28:49;;;;;;;4.70;2.10;;;5.50;99.90;;;;;;466003;252;27502;-79
2023/01/09 05:30:50;;;;;;;4.55;1.80;;;5.60;99.90;;;;;;466006;252;27463;-78
2023/01/09 05:32:51;;;;;;;6.53;1.58;;;5.60;99.90;;;;;;465998;252;27922;-79
2023/01/09 05:34:53;;;;;;;4.72;1.67;;;5.60;99.90;;;;;;465945;252;27984;-79
2023/01/09 05:36:54;;;;;;;8.13;1.70;;;5.60;99.90;;;;;;465957;252;27504;-79
2023/01/09 05:38:56;;;;;;;7.78;2.03;;;5.50;99.90;;;;;;465979;252;27463;-80
2023/01/09 05:40:56;;;;;;;8.63;1.60;;;5.60;99.90;;;;;;465919;255;27487;-79
2023/01/09 05:42:58;;;;;;;3.53;2.05;;;5.60;99.90;;;;;;465976;252;27459;-80
2023/01/09 05:44:59;;;;;;;9.75;1.80;;;5.50;99.90;;;;;;465926;252;27538;-78
2023/01/09 05:47:00;;;;;;;2.50;1.80;;;5.60;99.90;;;;;;465950;252;27998;-79
2023/01/09 05:49:01;;;;;;;5.85;1.90;;;5.50;99.90;;;;;;465959;252;27964;-78
2023/01/09 05:51:03;;;;;;;9.18;2.05;;;5.50;99.90;;;;;;465970;252;27483;-78
2023/01/09 05:53:05;;;;;;;3.62;1.90;;;5.60;99.90;;;;;;465886;255;27450;-80
2023/01/09 05:55:05;;;;;;;9.13;1.50;;;5.50;99.90;;;;;;465913;252;27431;-79
2023/01/09 05:57:06;;;;;;;7.47;1.73;;;5.50;99.90;;;;;;465985;252;27449;-79
2023/01/09 05:59:08;;;;;;;9.18;1.95;;;5.40;99.90;;;;;;465964;252;27558;-79
2023/01/09 06:01:09;;;;;;;10.57;1.83;;;5.40;99.90;;;;;;465958;252;28011;-79
2023/01/09 06:03:10;;;;;;;4.93;2.25;;;5.50;99.90;;;;;;465957;252;28044;-79
2023/01/09 06:05:11;;;;;;;6.93;2.30;;;5.50;99.90;;;;;;465945;252;27737;-78
2023/01/09 06:07:13;;;;;;;5.05;1.85;;;5.50;99.90;;;;;;465992;252;27436;-79
2023/01/09 06:09:14;;;;;;;7.95;2.45;;;5.50;99.90;;;;;;465955;252;27462;-78
2023/01/09 06:11:15;;;;;;;4.43;2.20;;;5.50;99.90;;;;;;465947;251;27430;-78
2023/01/09 06:13:16;;;;;;;11.95;1.95;;;5.50;99.90;;;;;;465954;252;27445;-77
2023/01/09 06:15:19;;;;;;;6.32;2.08;;;5.50;99.90;;;;;;465949;252;27561;-79
2023/01/09 06:17:19;;;;;;;4.53;2.83;;;5.50;99.90;;;;;;465950;252;28021;-77
2023/01/09 06:19:20;;;;;;;5.37;1.95;;;5.50;99.90;;;;;;465937;252;27960;-77
2023/01/09 06:21:22;;;;;;;6.20;1.92;;;5.50;99.90;;;;;;465959;251;27419;-80
2023/01/09 06:23:23;;;;;;;5.37;2.45;;;5.50;99.90;;;;;;465915;252;27539;-76
2023/01/09 06:25:24;;;;;;;4.95;2.20;;;5.50;99.90;;;;;;465977;252;27876;-80
2023/01/09 06:27:25;;;;;;;5.75;1.80;;;5.50;99.90;;;;;;465963;252;27415;-76
2023/01/09 06:29:27;;;;;;;4.85;2.05;;;5.40;99.90;;;;;;465965;252;27555;-79
2023/01/09 06:31:28;;;;;;;8.25;2.45;;;5.50;99.90;;;;;;465924;252;27407;-79
2023/01/09 06:33:29;;;;;;;11.70;2.60;;;5.50;99.90;;;;;;465970;252;27458;-80
2023/01/09 06:35:30;;;;;;;13.32;2.60;;;5.50;99.90;;;;;;465954;252;27450;-80
2023/01/09 06:37:32;;;;;;;9.13;2.37;;;5.50;99.90;;;;;;465993;252;27955;-77
2023/01/09 06:39:33;;;;;;;7.78;2.20;;;5.50;99.90;;;;;;465988;252;28045;-77
2023/01/09 06:41:34;;;;;;;10.05;2.45;;;5.50;99.90;;;;;;466011;252;27505;-79
2023/01/09 06:43:35;;;;;;;3.28;2.03;;;5.50;99.90;;;;;;465936;252;27454;-78
2023/01/09 06:45:37;;;;;;;5.97;1.95;;;5.50;99.90;;;;;;466032;252;27570;-80
2023/01/09 06:47:38;;;;;;;3.55;1.83;;;5.50;99.90;;;;;;466029;252;27557;-79
2023/01/09 06:49:39;;;;;;;4.70;1.85;;;5.50;99.90;;;;;;465975;252;27466;-79
2023/01/09 06:51:40;;;;;;;5.97;1.98;;;5.50;99.90;;;;;;466009;252;27494;-78
2023/01/09 06:53:42;;;;;;;5.70;1.98;;;5.50;99.90;;;;;;465975;252;27906;-78
2023/01/09 06:55:43;;;;;;;7.57;2.70;;;5.50;99.90;;;;;;465963;253;27985;-78
2023/01/09 06:57:44;;;;;;;7.82;2.03;;;5.60;99.90;;;;;;465960;252;27415;-80
2023/01/09 06:59:45;;;;;;;6.20;1.98;;;5.50;99.90;;;;;;465958;252;27462;-76
2023/01/09 07:01:47;;;;;;;6.12;2.20;;;5.50;99.90;;;;;;465989;252;27668;-79
2023/01/09 07:03:48;;;;;;;5.65;2.87;;;5.50;99.90;;;;;;465873;254;27511;-76
2023/01/09 07:05:49;;;;;;;9.20;2.28;;;5.50;99.90;;;;;;465972;252;27506;-77
2023/01/09 07:07:50;;;;;;;8.60;1.92;;;5.40;99.90;;;;;;465977;252;28065;-79
2023/01/09 07:09:52;;;;;;;5.60;2.22;;;5.50;99.90;;;;;;465995;252;27944;-78
2023/01/09 07:11:53;;;;;;;7.28;1.70;;;5.40;99.90;;;;;;466004;252;27444;-77
2023/01/09 07:13:54;;;;;;;4.25;1.52;;;5.50;99.90;;;;;;465983;252;27518;-76
2023/01/09 07:15:56;;;;;;;7.03;1.73;;;5.40;99.90;;;;;;465992;252;27557;-79
2023/01/09 07:17:57;;;;;;;6.30;1.62;;;5.40;99.90;;;;;;465993;252;27414;-80
2023/01/09 07:19:58;;;;;;;3.90;1.80;;;5.40;99.90;;;;;;465960;252;27466;-76
2023/01/09 07:21:59;;;;;;;8.82;2.60;;;5.40;99.90;;;;;;466028;252;27550;-79
2023/01/09 07:24:01;;;;;;;7.03;2.35;;;5.50;99.90;;;;;;466001;252;27982;-80
2023/01/09 07:26:02;;;;;;;6.55;2.22;;;5.50;99.90;;;;;;465999;252;27947;-79
2023/01/09 07:28:03;;;;;;;6.00;2.20;;;5.50;99.90;;;;;;465972;252;27419;-77
2023/01/09 07:30:05;;;;;;;8.13;2.15;;;5.50;99.90;;;;;;465961;252;27462;-78
2023/01/09 07:32:06;;;;;;;8.68;2.12;;;5.50;99.90;;;;;;465919;252;27808;-79
2023/01/09 07:34:07;;;;;;;10.70;2.85;;;5.60;99.90;;;;;;465957;252;27438;-79
2023/01/09 07:36:08;;;;;;;7.37;2.25;;;5.60;99.90;;;;;;465915;252;27553;-77
2023/01/09 07:38:09;;;;;;;2.83;1.60;;;5.50;99.90;;;;;;465866;252;27928;-79
2023/01/09 07:40:11;;;;;;;9.60;2.10;;;5.50;99.90;;;;;;465844;252;28063;-77
2023/01/09 07:42:12;;;;;;;9.07;2.05;;;5.50;99.90;;;;;;465864;252;28265;-77
2023/01/09 07:44:13;;;;;;;8.90;2.28;;;5.50;99.90;;;;;;465923;252;27426;-77
2023/01/09 07:46:14;;;;;;;9.73;1.80;;;5.50;99.90;;;;;;465983;252;27553;-77
2023/01/09 07:48:16;;;;;;;6.03;1.60;;;5.50;99.90;;;;;;466156;252;27594;-79
2023/01/09 07:50:17;;;;;;;4.60;1.70;;;5.40;99.90;;;;;;465988;252;27550;-77
2023/01/09 07:52:18;;;;;;;9.38;1.40;;;5.50;99.90;;;;;;465999;252;27542;-78
2023/01/09 07:54:19;;;;;;;2.40;1.40;;;5.50;99.90;;;;;;466008;252;27561;-76
2023/01/09 07:56:21;;;;;;;6.25;1.67;;;5.50;99.90;;;;;;465961;252;27435;-76
2023/01/09 07:58:22;;;;;;;5.18;1.45;;;5.40;99.90;;;;;;465974;252;27507;-76
2023/01/09 08:00:23;;;;;;;5.90;1.60;;;5.50;99.90;;;;;;465933;252;27930;-76
2023/01/09 08:02:25;;;;;;;4.12;1.55;;;5.50;99.90;;;;;;465965;252;28026;-78
2023/01/09 08:04:26;;;;;;;2.37;1.92;;;5.50;99.90;;;;;;465966;252;27498;-76
2023/01/09 08:06:27;;;;;;;4.28;1.67;;;5.50;99.90;;;;;;465996;251;27578;-80
2023/01/09 08:08:28;;;;;;;2.65;1.25;;;5.40;99.90;;;;;;466010;252;27483;-76
2023/01/09 08:10:30;;;;;;;4.90;1.70;;;5.50;99.90;;;;;;465999;252;27574;-78
2023/01/09 08:12:31;;;;;;;3.47;1.40;;;5.40;99.90;;;;;;465994;252;27541;-79
2023/01/09 08:14:32;;;;;;;2.50;1.55;;;5.50;99.90;;;;;;466011;252;27965;-78
2023/01/09 08:16:33;;;;;;;4.32;1.55;;;5.40;99.90;;;;;;466105;252;27491;-79
2023/01/09 08:18:35;;;;;;;2.55;1.60;;;5.40;99.90;;;;;;465970;252;27443;-77
2023/01/09 08:20:36;;;;;;;2.15;1.35;;;5.40;99.90;;;;;;465956;252;27457;-77
2023/01/09 08:22:37;;;;;;;4.22;1.62;;;5.50;99.90;;;;;;466004;252;27518;-80
2023/01/09 08:24:38;;;;;;;4.95;1.67;;;5.50;99.90;;;;;;465977;252;27486;-78
2023/01/09 08:26:40;;;;;;;1.90;1.55;;;5.40;99.90;;;;;;465954;252;27494;-77
2023/01/09 08:28:41;;;;;;;10.32;2.10;;;5.50;99.90;;;;;;465946;252;27503;-76
2023/01/09 08:30:42;;;;;;;7.10;2.10;;;5.40;99.90;;;;;;465932;252;28017;-80
2023/01/09 08:32:43;;;;;;;5.12;1.50;;;5.50;99.90;;;;;;465981;252;27956;-79
2023/01/09 08:34:45;;;;;;;4.75;1.58;;;5.50;99.90;;;;;;465954;252;27413;-76
2023/01/09 08:36:46;;;;;;;2.20;1.50;;;5.50;99.90;;;;;;465949;252;27478;-77
2023/01/09 08:38:47;;;;;;;3.83;1.35;;;5.50;99.90;;;;;;465946;252;27442;-78
2023/01/09 08:40:48;;;;;;;6.80;1.95;;;5.50;99.90;;;;;;465922;252;27534;-78
2023/01/09 08:47:32;;;;;;;3.25;1.80;;;5.50;99.90;;;;;;465980;255;27426;-77
2023/01/09 08:49:30;;;;;;;5.30;1.73;;;5.50;99.90;;;;;;465721;255;27462;-79
2023/01/09 08:51:31;;;;;;;5.25;1.52;;;5.50;99.90;;;;;;465968;252;27483;-77
2023/01/09 08:53:33;;;;;;;2.78;1.65;;;5.50;99.90;;;;;;465951;252;27454;-77
2023/01/09 08:55:34;;;;;;;5.18;1.70;;;5.50;99.90;;;;;;465948;252;27829;-77
2023/01/09 08:57:35;;;;;;;2.70;1.52;;;5.50;99.90;;;;;;466006;252;27412;-79
2023/01/09 08:59:36;;;;;;;6.55;1.90;;;5.50;99.90;;;;;;465962;252;27969;-79
2023/01/09 09:01:38;;;;;;;7.22;2.33;;;5.50;99.90;;;;;;465945;252;27882;-77
2023/01/09 09:03:39;;;;;;;3.37;1.67;;;5.60;99.90;;;;;;465724;254;27522;-80
2023/01/09 09:05:40;;;;;;;3.00;1.62;;;5.60;99.90;;;;;;465938;252;27545;-80
2023/01/09 09:07:41;;;;;;;5.90;2.87;;;5.60;99.90;;;;;;465962;252;27482;-78
2023/01/09 09:09:43;;;;;;;2.83;1.83;;;5.60;99.90;;;;;;465960;252;27470;-79
2023/01/09 09:11:44;;;;;;;3.97;2.30;;;5.60;99.90;;;;;;465955;252;27415;-78
2023/01/09 09:13:45;;;;;;;5.18;1.92;;;5.70;99.90;;;;;;465999;252;27926;-80
2023/01/09 09:15:46;;;;;;;3.25;2.17;;;5.70;99.90;;;;;;465930;252;28036;-78
2023/01/09 09:17:48;;;;;;;3.95;2.20;;;5.70;99.90;;;;;;465987;251;27438;-79
2023/01/09 09:19:49;;;;;;;4.90;1.90;;;5.70;99.90;;;;;;465953;252;27486;-81
2023/01/09 09:21:50;;;;;;;6.03;1.55;;;5.70;99.90;;;;;;465899;252;27445;-79
2023/01/09 09:23:51;;;;;;;3.85;1.87;;;5.70;99.90;;;;;;465853;252;27467;-79
2023/01/09 09:25:53;;;;;;;3.87;1.70;;;5.80;99.90;;;;;;465808;252;27483;-79
2023/01/09 09:27:59;;;;;;;6.37;1.95;;;5.80;99.90;;;;;;465856;252;27882;-80
2023/01/09 09:30:00;;;;;;;2.80;1.27;;;5.80;99.90;;;;;;465758;255;27946;-77
2023/01/09 09:32:01;;;;;;;4.65;1.50;;;5.80;99.90;;;;;;465944;252;27471;-77
2023/01/09 09:34:03;;;;;;;6.12;1.70;;;5.80;99.90;;;;;;465938;252;27882;-77
2023/01/09 09:36:04;;;;;;;3.83;1.90;;;5.80;99.90;;;;;;465992;252;28021;-79
2023/01/09 09:38:05;;;;;;;5.00;1.42;;;5.80;99.90;;;;;;466049;252;27535;-79
2023/01/09 09:40:06;;;;;;;3.75;1.33;;;5.80;99.90;;;;;;465979;252;27494;-79
2023/01/09 09:44:43;;;;;;;1.87;1.40;;;5.90;99.90;;;;;;465921;255;27464;-80
2023/01/09 09:46:44;;;;;;;4.30;1.90;;;5.90;99.90;;;;;;465953;252;27482;-78
2023/01/09 09:48:45;;;;;;;8.75;2.10;;;5.80;99.90;;;;;;465956;252;27403;-79
2023/01/09 09:50:46;;;;;;;3.70;1.33;;;5.80;99.90;;;;;;465990;252;27486;-78
2023/01/09 09:52:48;;;;;;;2.60;1.60;;;5.80;99.90;;;;;;466003;252;27450;-80
2023/01/09 09:54:50;;;;;;;4.07;1.48;;;5.90;99.90;;;;;;465979;252;27883;-79
2023/01/09 09:56:50;;;;;;;2.37;1.55;;;5.80;99.90;;;;;;465947;252;27941;-78
2023/01/09 09:58:51;;;;;;;7.50;1.75;;;5.80;99.90;;;;;;466008;251;27538;-79
2023/01/09 10:00:53;;;;;;;5.45;1.85;;;5.80;99.90;;;;;;465988;252;27411;-77
2023/01/09 10:02:54;;;;;;;6.28;2.12;;;5.80;99.90;;;;;;466020;252;27595;-77
2023/01/09 10:04:55;;;;;;;2.33;1.60;;;5.80;99.90;;;;;;465969;252;27979;-77
2023/01/09 10:06:57;;;;;;;6.07;1.90;;;5.90;99.90;;;;;;465962;252;28100;-79
2023/01/09 10:09:00;;;;;;;5.93;1.60;;;5.80;99.90;;;;;;465989;252;27478;-80
2023/01/09 10:10:59;;;;;;;3.00;1.73;;;5.80;99.90;;;;;;465852;255;27415;-79
2023/01/09 10:14:03;;;;;;;10.55;2.22;;;5.80;99.90;;;;;;465946;252;27554;-78
2023/01/09 10:15:02;;;;;;;5.47;1.65;;;5.80;99.90;;;;;;463879;255;27506;-79
2023/01/09 10:17:03;;;;;;;4.50;2.17;;;5.80;99.90;;;;;;465971;252;27445;-80
2023/01/09 10:19:04;;;;;;;1.73;1.52;;;5.80;99.90;;;;;;465956;252;28034;-79
2023/01/09 10:21:06;;;;;;;3.70;1.75;;;5.80;99.90;;;;;;465974;252;27441;-78
2023/01/09 10:23:07;;;;;;;3.95;1.73;;;5.90;99.90;;;;;;465956;252;27443;-79
2023/01/09 10:25:08;;;;;;;3.03;1.65;;;5.80;99.90;;;;;;465920;255;27414;-80
2023/01/09 10:27:09;;;;;;;6.95;2.05;;;5.80;99.90;;;;;;465975;252;27486;-79
2023/01/09 10:29:10;;;;;;;4.22;1.98;;;5.90;99.90;;;;;;465963;252;27562;-80
2023/01/09 10:31:12;;;;;;;2.35;1.70;;;6.00;99.90;;;;;;465970;252;27979;-79
2023/01/09 10:33:13;;;;;;;3.37;2.08;;;6.00;99.90;;;;;;465978;252;27969;-78
2023/01/09 10:35:14;;;;;;;5.12;2.10;;;6.00;99.90;;;;;;465927;252;27411;-77
2023/01/09 10:37:15;;;;;;;2.62;1.40;;;5.90;99.90;;;;;;465942;252;27450;-77
2023/01/09 10:39:17;;;;;;;2.00;1.60;;;5.90;99.90;;;;;;466008;252;27910;-80
2023/01/09 10:41:18;;;;;;;5.22;3.00;;;6.00;99.90;;;;;;465989;252;27415;-79
2023/01/09 10:43:19;;;;;;;5.65;1.52;;;5.90;99.90;;;;;;465964;252;27534;-79
2023/01/09 10:45:20;;;;;;;6.82;1.58;;;5.90;99.90;;;;;;465873;252;28072;-79
2023/01/09 10:47:22;;;;;;;2.17;1.62;;;5.90;99.90;;;;;;465941;252;27941;-77
2023/01/09 10:49:23;;;;;;;5.68;1.70;;;6.00;99.90;;;;;;465948;252;27447;-78